createdAt,value
2023-04-26T00:00:09.259Z,3.60
2023-04-26T00:02:37.667Z,4.43
2023-04-26T00:05:06.922Z,6.43
2023-04-26T00:07:38.034Z,4.87
2023-04-26T00:10:06.532Z,4.27
2023-04-26T00:12:34.592Z,4.23
2023-04-26T00:15:02.817Z,4.90
2023-04-26T00:17:31.518Z,4.17
2023-04-26T00:19:59.415Z,4.50
2023-04-26T00:22:27.944Z,4.20
2023-04-26T00:24:57.207Z,4.90
2023-04-26T00:27:25.015Z,4.40
2023-04-26T00:29:52.945Z,5.00
2023-04-26T00:32:20.868Z,4.63
2023-04-26T00:34:48.768Z,4.83
2023-04-26T00:37:19.000Z,4.30
2023-04-26T00:39:46.971Z,5.23
2023-04-26T00:42:16.358Z,4.77
2023-04-26T00:44:44.439Z,4.00
2023-04-26T00:47:12.391Z,4.47
2023-04-26T00:49:40.739Z,4.63
2023-04-26T00:52:09.115Z,4.80
2023-04-26T00:54:37.104Z,4.73
2023-04-26T00:57:07.194Z,4.50
2023-04-26T00:59:36.937Z,4.43
2023-04-26T01:02:05.177Z,3.87
2023-04-26T01:04:33.613Z,5.07
2023-04-26T01:07:03.046Z,4.80
2023-04-26T01:09:34.777Z,4.23
2023-04-26T01:12:03.444Z,4.70
2023-04-26T01:14:32.093Z,4.80
2023-04-26T01:17:03.829Z,4.97
2023-04-26T01:19:32.697Z,5.47
2023-04-26T01:22:00.769Z,5.13
2023-04-26T01:24:30.862Z,5.57
2023-04-26T01:26:58.967Z,5.43
2023-04-26T01:29:27.732Z,4.50
2023-04-26T01:31:55.590Z,5.03
2023-04-26T01:34:23.422Z,5.00
2023-04-26T01:36:51.311Z,5.10
2023-04-26T01:39:19.487Z,4.60
2023-04-26T01:41:48.732Z,3.83
2023-04-26T01:44:16.911Z,4.80
2023-04-26T01:46:44.991Z,5.00
2023-04-26T01:49:13.980Z,4.67
2023-04-26T01:51:42.270Z,5.00
2023-04-26T01:54:10.101Z,5.43
2023-04-26T01:56:37.977Z,4.40
2023-04-26T01:59:07.282Z,5.10
2023-04-26T02:01:35.267Z,4.60
2023-04-26T02:04:04.348Z,4.70
2023-04-26T02:06:32.791Z,5.20
2023-04-26T02:09:00.627Z,4.90
2023-04-26T02:11:28.535Z,4.90
2023-04-26T02:13:56.487Z,4.90
2023-04-26T02:16:27.111Z,4.57
2023-04-26T02:18:55.776Z,4.50
2023-04-26T02:21:23.643Z,4.83
2023-04-26T02:23:51.676Z,4.60
2023-04-26T02:26:19.685Z,5.07
2023-04-26T02:28:47.602Z,5.10
2023-04-26T02:31:15.569Z,5.23
2023-04-26T02:33:44.824Z,4.90
2023-04-26T02:36:13.757Z,5.23
2023-04-26T02:38:41.683Z,4.60
2023-04-26T02:41:09.792Z,4.93
2023-04-26T02:43:37.744Z,4.67
2023-04-26T02:46:08.421Z,4.40
2023-04-26T02:48:36.738Z,4.70
2023-04-26T02:51:06.740Z,4.73
2023-04-26T02:53:34.949Z,4.20
2023-04-26T02:56:03.045Z,5.00
2023-04-26T02:58:30.973Z,5.07
2023-04-26T03:01:01.353Z,4.17
2023-04-26T03:03:31.073Z,4.60
2023-04-26T03:05:59.524Z,4.87
2023-04-26T03:08:28.764Z,4.37
2023-04-26T03:10:56.804Z,4.90
2023-04-26T03:13:24.799Z,4.70
2023-04-26T03:15:55.033Z,5.00
2023-04-26T03:18:23.310Z,4.57
2023-04-26T03:20:51.728Z,5.43
2023-04-26T03:23:19.664Z,4.50
2023-04-26T03:25:48.949Z,4.47
2023-04-26T03:28:17.006Z,4.53
2023-04-26T03:30:45.027Z,4.47
2023-04-26T03:33:13.735Z,4.97
2023-04-26T03:35:41.814Z,6.30
2023-04-26T03:38:09.894Z,5.20
2023-04-26T03:40:37.739Z,3.90
2023-04-26T03:43:07.396Z,5.23
2023-04-26T03:45:35.622Z,4.30
2023-04-26T03:48:03.769Z,5.17
2023-04-26T03:50:31.848Z,4.57
2023-04-26T03:52:59.688Z,4.50
2023-04-26T03:55:27.576Z,4.77
2023-04-26T03:57:55.489Z,4.47
2023-04-26T04:00:26.051Z,4.70
2023-04-26T04:02:54.104Z,4.17
2023-04-26T04:05:26.102Z,4.90
2023-04-26T04:07:54.445Z,5.00
2023-04-26T04:10:23.121Z,6.10
2023-04-26T04:12:51.415Z,4.23
2023-04-26T04:15:21.643Z,4.50
2023-04-26T04:17:51.788Z,4.67
2023-04-26T04:20:21.227Z,3.93
2023-04-26T04:22:49.413Z,4.43
2023-04-26T04:25:17.401Z,4.70
2023-04-26T04:27:45.387Z,7.20
2023-04-26T04:30:14.696Z,5.67
2023-04-26T04:32:46.893Z,4.50
2023-04-26T04:35:18.073Z,4.93
2023-04-26T04:37:46.062Z,4.80
2023-04-26T04:40:14.590Z,5.30
2023-04-26T04:42:46.753Z,4.80
2023-04-26T04:45:16.188Z,4.77
2023-04-26T04:47:45.421Z,4.87
2023-04-26T04:50:14.530Z,4.77
2023-04-26T04:52:44.798Z,5.70
2023-04-26T04:55:13.099Z,5.17
2023-04-26T04:57:43.123Z,4.60
2023-04-26T05:00:13.229Z,5.07
2023-04-26T05:03:00.180Z,4.73
2023-04-26T05:05:28.587Z,4.57
2023-04-26T05:07:58.076Z,5.00
2023-04-26T05:10:26.042Z,5.70
2023-04-26T05:12:54.665Z,5.03
2023-04-26T05:15:22.665Z,4.67
2023-04-26T05:17:51.928Z,4.90
2023-04-26T05:20:23.248Z,5.67
2023-04-26T05:22:51.840Z,5.30
2023-04-26T05:25:22.435Z,5.20
2023-04-26T05:27:54.561Z,4.97
2023-04-26T05:30:45.180Z,5.30
2023-04-26T05:33:49.157Z,4.80
2023-04-26T05:36:21.281Z,4.67
2023-04-26T05:38:49.259Z,4.53
2023-04-26T05:41:18.484Z,5.17
2023-04-26T05:43:47.391Z,5.67
2023-04-26T05:46:18.510Z,5.20
2023-04-26T05:48:46.609Z,5.20
2023-04-26T05:51:14.674Z,4.97
2023-04-26T05:53:42.781Z,5.43
2023-04-26T05:56:10.985Z,5.23
2023-04-26T05:58:40.665Z,5.03
2023-04-26T06:01:08.828Z,5.60
2023-04-26T06:03:37.402Z,5.07
2023-04-26T06:06:06.066Z,4.90
2023-04-26T06:08:34.122Z,5.30
2023-04-26T06:11:01.983Z,5.50
2023-04-26T06:13:30.153Z,5.33
2023-04-26T06:16:00.809Z,5.30
2023-04-26T06:18:28.665Z,4.90
2023-04-26T06:20:56.569Z,5.20
2023-04-26T06:23:24.860Z,4.87
2023-04-26T06:25:52.869Z,4.77
2023-04-26T06:28:20.847Z,4.83
2023-04-26T06:30:49.058Z,5.00
2023-04-26T06:33:18.502Z,5.97
2023-04-26T06:35:46.870Z,4.40
2023-04-26T06:38:15.131Z,4.60
2023-04-26T06:40:43.948Z,4.87
2023-04-26T06:43:12.048Z,4.40
2023-04-26T06:46:06.374Z,5.10
2023-04-26T06:48:35.719Z,4.83
2023-04-26T06:51:07.205Z,4.80
2023-04-26T06:53:35.367Z,5.20
2023-04-26T06:56:03.636Z,4.80
2023-04-26T06:58:31.896Z,5.20
2023-04-26T07:00:59.758Z,4.30
2023-04-26T07:03:28.030Z,5.20
2023-04-26T07:05:57.636Z,4.80
2023-04-26T07:08:26.029Z,4.47
2023-04-26T07:10:55.378Z,3.93
2023-04-26T07:13:23.423Z,4.40
2023-04-26T07:15:52.275Z,4.70
2023-04-26T07:18:20.423Z,5.13
2023-04-26T07:20:48.336Z,4.40
2023-04-26T07:23:17.624Z,3.80
2023-04-26T07:25:45.813Z,4.60
2023-04-26T07:28:13.794Z,4.23
2023-04-26T07:30:42.555Z,4.20
2023-04-26T07:33:10.891Z,4.10
2023-04-26T07:35:38.893Z,3.87
2023-04-26T07:38:07.316Z,4.47
2023-04-26T07:40:36.706Z,4.30
2023-04-26T07:43:05.253Z,5.00
2023-04-26T07:45:36.203Z,3.60
2023-04-26T07:48:04.250Z,4.43
2023-04-26T07:50:32.231Z,4.87
2023-04-26T07:53:00.418Z,4.27
2023-04-26T07:55:28.548Z,3.80
2023-04-26T07:57:57.930Z,4.47
2023-04-26T08:00:25.808Z,4.20
2023-04-26T08:02:53.933Z,4.00
2023-04-26T08:05:22.311Z,3.50
2023-04-26T08:07:50.264Z,4.23
2023-04-26T08:10:18.229Z,3.60
2023-04-26T08:12:46.266Z,4.37
2023-04-26T08:15:16.145Z,4.90
2023-04-26T08:17:44.143Z,4.33
2023-04-26T08:20:13.089Z,4.20
2023-04-26T08:22:41.035Z,3.70
2023-04-26T08:25:09.720Z,3.90
2023-04-26T08:27:37.978Z,4.47
2023-04-26T08:30:07.467Z,3.97
2023-04-26T08:32:36.960Z,3.37
2023-04-26T08:35:05.825Z,3.50
2023-04-26T08:37:33.957Z,3.47
2023-04-26T08:40:01.837Z,4.13
2023-04-26T08:42:31.089Z,3.50
2023-04-26T08:45:02.633Z,3.40
2023-04-26T08:47:39.617Z,3.77
2023-04-26T08:50:11.858Z,3.10
2023-04-26T08:52:41.580Z,3.13
2023-04-26T08:55:14.579Z,3.50
2023-04-26T08:57:44.058Z,3.20
2023-04-26T09:00:13.588Z,3.20
2023-04-26T09:02:42.900Z,3.37
2023-04-26T09:05:13.019Z,3.43
2023-04-26T09:07:46.428Z,3.27
2023-04-26T09:10:19.265Z,3.23
2023-04-26T09:12:47.137Z,3.10
2023-04-26T09:15:16.892Z,3.70
2023-04-26T09:17:45.894Z,3.27
2023-04-26T09:20:23.869Z,3.57
2023-04-26T09:22:54.266Z,3.90
2023-04-26T09:25:29.309Z,3.40
2023-04-26T09:27:58.036Z,3.60
2023-04-26T09:30:26.661Z,2.90
2023-04-26T09:32:57.059Z,3.70
2023-04-26T09:35:31.637Z,4.00
2023-04-26T09:38:07.952Z,3.27
2023-04-26T09:40:41.010Z,3.73
2023-04-26T09:43:11.606Z,3.30
2023-04-26T09:45:49.528Z,3.30
2023-04-26T09:48:21.318Z,3.70
2023-04-26T09:50:53.360Z,3.90
2023-04-26T09:53:29.236Z,4.13
2023-04-26T09:55:58.188Z,3.30
2023-04-26T09:58:26.705Z,3.30
2023-04-26T10:00:56.526Z,3.43
2023-04-26T10:03:24.677Z,3.50
2023-04-26T10:05:55.398Z,3.40
2023-04-26T10:08:23.412Z,2.93
2023-04-26T10:10:51.420Z,3.17
2023-04-26T10:13:20.833Z,4.00
2023-04-26T10:15:49.894Z,3.10
2023-04-26T10:18:17.928Z,2.90
2023-04-26T10:20:49.512Z,2.80
2023-04-26T10:23:21.495Z,2.73
2023-04-26T10:25:50.334Z,3.03
2023-04-26T10:28:18.971Z,3.30
2023-04-26T10:30:56.725Z,3.03
2023-04-26T10:33:26.008Z,2.80
2023-04-26T10:36:11.486Z,2.57
2023-04-26T10:38:42.536Z,2.50
2023-04-26T10:41:33.214Z,2.80
2023-04-26T10:44:23.303Z,2.83
2023-04-26T10:46:52.742Z,3.20
2023-04-26T10:49:25.706Z,3.03
2023-04-26T10:52:11.663Z,2.50
2023-04-26T10:54:57.561Z,2.60
2023-04-26T10:57:48.250Z,3.10
2023-04-26T11:00:31.418Z,2.40
2023-04-26T11:03:03.950Z,2.87
2023-04-26T11:05:39.382Z,2.30
2023-04-26T11:08:09.447Z,2.43
2023-04-26T11:10:42.304Z,2.53
2023-04-26T11:13:10.267Z,2.60
2023-04-26T11:15:38.186Z,2.40
2023-04-26T11:18:06.740Z,2.30
2023-04-26T11:20:35.549Z,2.80
2023-04-26T11:23:03.705Z,2.53
2023-04-26T11:25:31.633Z,2.80
2023-04-26T11:28:04.503Z,2.93
2023-04-26T11:30:33.277Z,2.83
2023-04-26T11:33:01.804Z,2.80
2023-04-26T11:35:30.909Z,2.87
2023-04-26T11:38:00.841Z,2.67
2023-04-26T11:40:29.954Z,3.07
2023-04-26T11:43:01.388Z,2.90
2023-04-26T11:45:33.206Z,2.80
2023-04-26T11:48:02.867Z,2.73
2023-04-26T11:50:32.910Z,2.47
2023-04-26T11:53:04.852Z,2.50
2023-04-26T11:55:35.938Z,3.13
2023-04-26T11:58:11.302Z,4.20
2023-04-26T12:00:56.325Z,2.80
2023-04-26T12:03:25.276Z,2.60
2023-04-26T12:05:56.142Z,2.87
2023-04-26T12:08:25.675Z,2.73
2023-04-26T12:10:54.058Z,2.60
2023-04-26T12:13:22.194Z,3.00
2023-04-26T12:15:52.594Z,2.60
2023-04-26T12:18:20.957Z,3.27
2023-04-26T12:20:48.822Z,3.33
2023-04-26T12:23:17.895Z,3.13
2023-04-26T12:25:54.959Z,2.60
2023-04-26T12:28:23.661Z,2.93
2023-04-26T12:30:53.126Z,2.90
2023-04-26T12:33:23.189Z,2.80
2023-04-26T12:35:51.928Z,2.77
2023-04-26T12:38:20.448Z,3.10
2023-04-26T12:40:48.336Z,2.60
2023-04-26T12:43:16.883Z,2.67
2023-04-26T12:45:44.827Z,2.83
2023-04-26T12:48:14.242Z,2.57
2023-04-26T12:50:42.437Z,2.97
2023-04-26T12:53:11.095Z,2.90
2023-04-26T12:55:39.765Z,3.40
2023-04-26T12:58:07.627Z,3.53
2023-04-26T13:00:35.818Z,4.00
2023-04-26T13:03:03.956Z,3.60
2023-04-26T13:05:33.359Z,4.63
2023-04-26T13:08:02.237Z,3.50
2023-04-26T13:10:30.210Z,3.77
2023-04-26T13:12:58.867Z,2.83
2023-04-26T13:15:26.851Z,2.90
2023-04-26T13:17:55.021Z,2.60
2023-04-26T13:20:25.086Z,2.63
2023-04-26T13:22:55.546Z,2.70
2023-04-26T13:25:23.349Z,2.67
2023-04-26T13:27:53.482Z,2.60
2023-04-26T13:30:21.464Z,2.47
2023-04-26T13:32:49.451Z,2.37
2023-04-26T13:35:17.478Z,2.70
2023-04-26T13:37:45.434Z,2.60
2023-04-26T13:40:17.056Z,2.70
2023-04-26T13:42:44.997Z,2.63
2023-04-26T13:45:17.612Z,3.20
2023-04-26T13:47:47.151Z,2.70
2023-04-26T13:50:15.036Z,2.70
2023-04-26T13:52:43.106Z,2.93
2023-04-26T13:55:11.387Z,3.57
2023-04-26T13:57:40.728Z,2.80
2023-04-26T14:00:09.880Z,2.50
2023-04-26T14:02:40.766Z,3.13
2023-04-26T14:05:09.885Z,2.40
2023-04-26T14:07:38.061Z,2.57
2023-04-26T14:10:06.458Z,3.00
2023-04-26T14:12:35.045Z,2.80
2023-04-26T14:15:06.680Z,2.67
2023-04-26T14:17:34.958Z,2.80
2023-04-26T14:20:02.914Z,2.77
2023-04-26T14:22:30.947Z,2.90
2023-04-26T14:24:58.885Z,2.70
2023-04-26T14:27:26.946Z,2.87
2023-04-26T14:29:54.764Z,3.00
2023-04-26T14:32:24.318Z,2.87
2023-04-26T14:34:52.313Z,2.70
2023-04-26T14:37:22.492Z,3.03
2023-04-26T14:39:50.949Z,2.67
2023-04-26T14:42:19.178Z,2.70
2023-04-26T14:44:47.694Z,3.00
2023-04-26T14:47:15.644Z,2.70
2023-04-26T14:49:44.973Z,2.70
2023-04-26T14:52:12.866Z,2.50
2023-04-26T14:54:41.428Z,3.07
2023-04-26T14:57:09.306Z,3.10
2023-04-26T14:59:37.786Z,3.00
2023-04-26T15:02:06.027Z,2.63
2023-04-26T15:04:34.336Z,2.70
2023-04-26T15:07:03.830Z,2.67
2023-04-26T15:09:31.714Z,2.80
2023-04-26T15:11:59.511Z,2.63
2023-04-26T15:14:27.382Z,2.70
2023-04-26T15:16:55.517Z,2.67
2023-04-26T15:19:23.474Z,2.87
2023-04-26T15:21:51.491Z,2.43
2023-04-26T15:24:20.766Z,2.70
2023-04-26T15:26:48.649Z,2.97
2023-04-26T15:29:16.745Z,2.77
2023-04-26T15:31:44.712Z,2.63
2023-04-26T15:34:12.610Z,2.63
2023-04-26T15:36:40.555Z,2.70
2023-04-26T15:39:09.019Z,2.80
2023-04-26T15:41:38.253Z,2.83
2023-04-26T15:44:06.319Z,3.03
2023-04-26T15:46:36.092Z,2.90
2023-04-26T15:49:05.624Z,3.07
2023-04-26T15:51:33.478Z,5.87
2023-04-26T15:54:01.366Z,3.97
2023-04-26T15:56:29.246Z,2.80
2023-04-26T15:58:58.602Z,3.17
2023-04-26T16:01:26.561Z,3.00
2023-04-26T16:03:54.846Z,2.67
2023-04-26T16:06:22.800Z,3.20
2023-04-26T16:08:50.666Z,2.80
2023-04-26T16:11:18.653Z,3.40
2023-04-26T16:13:51.656Z,2.90
2023-04-26T16:16:20.981Z,3.10
2023-04-26T16:18:48.963Z,3.17
2023-04-26T16:21:16.957Z,2.57
2023-04-26T16:23:45.311Z,2.70
2023-04-26T16:26:13.430Z,2.40
2023-04-26T16:28:41.726Z,2.57
2023-04-26T16:31:09.626Z,2.53
2023-04-26T16:33:39.905Z,2.80
2023-04-26T16:36:09.533Z,3.10
2023-04-26T16:38:37.454Z,3.00
2023-04-26T16:41:06.094Z,2.40
2023-04-26T16:43:36.978Z,2.80
2023-04-26T16:46:06.495Z,2.30
2023-04-26T16:48:35.550Z,2.63
2023-04-26T16:51:07.604Z,2.53
2023-04-26T16:53:37.555Z,2.97
2023-04-26T16:56:06.273Z,2.93
2023-04-26T16:58:34.103Z,2.63
2023-04-26T17:01:02.185Z,2.53
2023-04-26T17:03:30.258Z,2.67
2023-04-26T17:05:58.296Z,2.83
2023-04-26T17:08:27.568Z,2.90
2023-04-26T17:10:55.649Z,3.10
2023-04-26T17:13:24.202Z,2.80
2023-04-26T17:15:52.148Z,2.90
2023-04-26T17:18:20.101Z,3.30
2023-04-26T17:20:49.989Z,3.20
2023-04-26T17:23:18.018Z,3.37
2023-04-26T17:25:47.818Z,2.93
2023-04-26T17:28:15.741Z,2.63
2023-04-26T17:30:43.668Z,2.80
2023-04-26T17:33:12.278Z,3.17
2023-04-26T17:35:40.499Z,2.40
2023-04-26T17:38:08.519Z,3.10
2023-04-26T17:40:36.384Z,3.17
2023-04-26T17:43:05.586Z,2.90
2023-04-26T17:45:33.564Z,3.10
2023-04-26T17:48:01.520Z,3.10
2023-04-26T17:50:30.213Z,3.43
2023-04-26T17:52:58.116Z,3.60
2023-04-26T17:55:26.041Z,3.37
2023-04-26T17:57:54.032Z,3.17
2023-04-26T18:00:24.595Z,3.50
2023-04-26T18:02:53.883Z,3.53
2023-04-26T18:05:21.948Z,4.03
2023-04-26T18:07:49.912Z,3.80
2023-04-26T18:10:18.032Z,3.73
2023-04-26T18:12:46.231Z,3.57
2023-04-26T18:15:14.656Z,4.00
2023-04-26T18:17:44.028Z,4.10
2023-04-26T18:20:13.639Z,3.90
2023-04-26T18:22:41.539Z,3.97
2023-04-26T18:25:09.940Z,4.20
2023-04-26T18:27:37.848Z,4.50
2023-04-26T18:30:07.829Z,4.33
2023-04-26T18:32:35.810Z,4.80
2023-04-26T18:35:06.324Z,4.20
2023-04-26T18:37:34.210Z,3.60
2023-04-26T18:40:02.062Z,3.70
2023-04-26T18:42:29.972Z,3.83
2023-04-26T18:44:57.773Z,4.20
2023-04-26T18:47:25.656Z,4.53
2023-04-26T18:49:53.656Z,4.37
2023-04-26T18:52:23.031Z,5.00
2023-04-26T18:54:51.137Z,4.37
2023-04-26T18:57:22.235Z,9.33
2023-04-26T18:59:50.321Z,14.47
2023-04-26T19:02:18.379Z,10.77
2023-04-26T19:04:49.850Z,9.37
2023-04-26T19:07:18.612Z,7.67
2023-04-26T19:09:54.109Z,9.00
2023-04-26T19:12:22.729Z,9.30
2023-04-26T19:14:50.575Z,15.43
2023-04-26T19:17:18.430Z,10.80
2023-04-26T19:19:46.735Z,16.87
2023-04-26T19:22:14.687Z,18.33
2023-04-26T19:24:42.583Z,11.53
2023-04-26T19:27:12.372Z,10.87
2023-04-26T19:29:40.256Z,8.97
2023-04-26T19:32:08.238Z,5.83
2023-04-26T19:34:38.523Z,5.30
2023-04-26T19:37:07.116Z,6.17
2023-04-26T19:39:34.965Z,5.60
2023-04-26T19:42:03.267Z,6.13
2023-04-26T19:44:32.758Z,5.40
2023-04-26T19:47:00.872Z,5.53
2023-04-26T19:49:29.227Z,6.13
2023-04-26T19:51:57.356Z,5.57
2023-04-26T19:54:25.369Z,6.40
2023-04-26T19:56:53.301Z,5.73
2023-04-26T19:59:21.412Z,5.63
2023-04-26T20:01:53.628Z,5.50
2023-04-26T20:04:22.098Z,5.50
2023-04-26T20:06:50.060Z,5.03
2023-04-26T20:09:18.008Z,4.93
2023-04-26T20:11:45.824Z,5.00
2023-04-26T20:14:13.686Z,5.50
2023-04-26T20:16:41.616Z,5.60
2023-04-26T20:19:11.122Z,4.53
2023-04-26T20:21:39.044Z,5.20
2023-04-26T20:24:07.779Z,5.67
2023-04-26T20:26:35.687Z,4.70
2023-04-26T20:29:03.545Z,5.53
2023-04-26T20:31:32.491Z,4.37
2023-04-26T20:34:00.974Z,4.70
2023-04-26T20:36:30.223Z,5.50
2023-04-26T20:38:58.091Z,5.60
2023-04-26T20:41:25.938Z,5.30
2023-04-26T20:43:53.784Z,5.63
2023-04-26T20:46:21.813Z,5.67
2023-04-26T20:48:49.804Z,5.30
2023-04-26T20:51:17.677Z,5.40
2023-04-26T20:53:46.963Z,5.33
2023-04-26T20:56:14.791Z,5.83
2023-04-26T20:58:42.602Z,4.87
2023-04-26T21:01:11.442Z,5.17
2023-04-26T21:03:39.644Z,4.80
2023-04-26T21:06:07.873Z,4.20
2023-04-26T21:08:36.913Z,5.00
2023-04-26T21:11:06.572Z,4.80
2023-04-26T21:13:34.412Z,6.20
2023-04-26T21:16:02.539Z,7.00
2023-04-26T21:18:30.521Z,7.00
2023-04-26T21:20:58.403Z,6.47
2023-04-26T21:23:26.275Z,7.70
2023-04-26T21:25:54.318Z,7.37
2023-04-26T21:28:23.700Z,7.50
2023-04-26T21:30:51.670Z,7.87
2023-04-26T21:33:19.675Z,8.20
2023-04-26T21:35:47.620Z,8.57
2023-04-26T21:38:15.632Z,7.43
2023-04-26T21:40:43.531Z,8.03
2023-04-26T21:43:11.509Z,7.27
2023-04-26T21:45:41.358Z,7.67
2023-04-26T21:48:09.344Z,8.63
2023-04-26T21:50:37.327Z,8.80
2023-04-26T21:53:05.333Z,7.07
2023-04-26T21:55:33.267Z,7.80
2023-04-26T21:58:01.259Z,8.50
2023-04-26T22:00:29.180Z,8.20
2023-04-26T22:02:58.618Z,8.20
2023-04-26T22:05:26.861Z,7.73
2023-04-26T22:07:54.858Z,8.13
2023-04-26T22:10:22.721Z,7.60
2023-04-26T22:12:50.644Z,7.00
2023-04-26T22:15:18.429Z,7.43
2023-04-26T22:17:46.657Z,7.10
2023-04-26T22:20:16.128Z,7.33
2023-04-26T22:22:44.101Z,8.17
2023-04-26T22:25:12.028Z,7.83
2023-04-26T22:27:39.916Z,7.90
2023-04-26T22:30:20.511Z,7.80
2023-04-26T22:32:54.684Z,8.17
2023-04-26T22:35:25.515Z,8.40
2023-04-26T22:37:53.730Z,8.33
2023-04-26T22:40:21.969Z,8.63
2023-04-26T22:42:49.869Z,8.30
2023-04-26T22:45:18.129Z,8.37
2023-04-26T22:47:46.305Z,8.90
2023-04-26T22:50:14.379Z,9.27
2023-04-26T22:52:43.768Z,8.20
2023-04-26T22:55:11.832Z,8.33
2023-04-26T22:57:39.681Z,8.10
2023-04-26T23:00:12.262Z,8.00
2023-04-26T23:02:40.325Z,7.53
2023-04-26T23:05:10.161Z,7.40
2023-04-26T23:07:38.534Z,7.97
2023-04-26T23:10:09.964Z,7.87
2023-04-26T23:12:38.195Z,6.90
2023-04-26T23:15:07.186Z,8.10
2023-04-26T23:17:35.941Z,6.53
2023-04-26T23:20:11.915Z,6.40
2023-04-26T23:22:40.679Z,6.17
2023-04-26T23:25:10.697Z,8.53
2023-04-26T23:27:39.051Z,7.77
2023-04-26T23:30:08.363Z,6.40
2023-04-26T23:32:36.433Z,6.80
2023-04-26T23:35:05.505Z,6.80
2023-04-26T23:37:33.589Z,6.80
2023-04-26T23:40:01.514Z,7.23
2023-04-26T23:42:30.829Z,6.40
2023-04-26T23:44:58.636Z,6.73
2023-04-26T23:47:26.941Z,8.07
2023-04-26T23:49:54.897Z,7.60
2023-04-26T23:52:22.779Z,8.13
2023-04-26T23:54:50.751Z,9.10
2023-04-26T23:57:18.653Z,8.07
2023-04-26T23:59:47.971Z,8.87
